createdAt,value
2019-01-28T00:00:19.461Z,0.5
2019-01-28T00:02:19.103Z,0.7
2019-01-28T00:04:18.731Z,1.2
2019-01-28T00:06:19.134Z,0.8
2019-01-28T00:08:18.781Z,0.5
2019-01-28T00:10:18.915Z,0.6
2019-01-28T00:12:18.562Z,0.7
2019-01-28T00:14:19.267Z,0.6
2019-01-28T00:16:19.124Z,0.7
2019-01-28T00:18:18.832Z,0.9
2019-01-28T00:20:18.478Z,1
2019-01-28T00:22:19.143Z,0.9
2019-01-28T00:24:18.783Z,0.8
2019-01-28T00:26:18.806Z,0.4
2019-01-28T00:28:18.467Z,0.8
2019-01-28T00:30:19.136Z,0.9
2019-01-28T00:32:18.792Z,0.7
2019-01-28T00:34:18.447Z,0.8
2019-01-28T00:36:18.828Z,0.9
2019-01-28T00:38:18.452Z,0.7
2019-01-28T00:40:18.597Z,0.9
2019-01-28T00:42:19.147Z,0.9
2019-01-28T00:44:18.807Z,0.6
2019-01-28T00:46:19.151Z,0.9
2019-01-28T00:48:18.807Z,0.7
2019-01-28T00:50:18.481Z,0.7
2019-01-28T00:52:19.125Z,0.9
2019-01-28T00:54:18.766Z,0.7
2019-01-28T00:56:19.095Z,0.6
2019-01-28T00:58:18.752Z,0.8
2019-01-28T01:00:19.499Z,0.6
2019-01-28T01:02:19.140Z,0.8
2019-01-28T01:04:18.791Z,0.7
2019-01-28T01:06:18.723Z,0.8
2019-01-28T01:08:19.364Z,1.1
2019-01-28T01:10:18.498Z,0.7
2019-01-28T01:12:19.154Z,1.4
2019-01-28T01:14:18.796Z,1.1
2019-01-28T01:16:19.088Z,0.7
2019-01-28T01:18:18.811Z,1.3
2019-01-28T01:20:18.461Z,0.8
2019-01-28T01:22:19.129Z,0.7
2019-01-28T01:24:18.755Z,0.7
2019-01-28T01:26:19.027Z,0.8
2019-01-28T01:28:18.688Z,0.7
2019-01-28T01:30:19.331Z,1.1
2019-01-28T01:32:18.992Z,0.8
2019-01-28T01:34:18.642Z,1.2
2019-01-28T01:36:19.140Z,0.7
2019-01-28T01:38:18.766Z,1.5
2019-01-28T01:40:18.866Z,1.5
2019-01-28T01:42:18.509Z,0.9
2019-01-28T01:44:19.144Z,0.8
2019-01-28T01:46:19.003Z,1.5
2019-01-28T01:48:18.644Z,0.9
2019-01-28T01:50:19.285Z,1.4
2019-01-28T01:52:18.913Z,0.9
2019-01-28T01:54:18.561Z,1
2019-01-28T01:56:19.412Z,1
2019-01-28T01:58:19.085Z,1.2
2019-01-28T02:00:18.769Z,1.4
2019-01-28T02:02:19.430Z,1.1
2019-01-28T02:04:19.108Z,1.4
2019-01-28T02:06:18.434Z,1
2019-01-28T02:08:19.079Z,1.6
2019-01-28T02:10:19.261Z,1.2
2019-01-28T02:12:18.906Z,0.6
2019-01-28T02:14:18.555Z,1.2
2019-01-28T02:16:19.321Z,0.8
2019-01-28T02:18:19.052Z,1.1
2019-01-28T02:20:18.715Z,0.9
2019-01-28T02:22:19.357Z,1.1
2019-01-28T02:24:19.010Z,1.2
2019-01-28T02:26:19.402Z,1.1
2019-01-28T02:28:19.026Z,0.9
2019-01-28T02:30:18.661Z,0.9
2019-01-28T02:32:19.300Z,1.1
2019-01-28T02:34:18.962Z,1.1
2019-01-28T02:36:18.835Z,1.3
2019-01-28T02:38:18.461Z,0.5
2019-01-28T02:40:18.573Z,0.9
2019-01-28T02:42:19.244Z,1.1
2019-01-28T02:44:18.900Z,1.4
2019-01-28T02:46:18.693Z,1.1
2019-01-28T02:48:19.355Z,1
2019-01-28T02:50:19.024Z,0.9
2019-01-28T02:52:18.680Z,0.9
2019-01-28T02:54:19.339Z,0.6
2019-01-28T02:56:18.850Z,1.1
2019-01-28T02:58:18.514Z,1.3
2019-01-28T03:00:19.195Z,1
2019-01-28T03:02:18.851Z,0.7
2019-01-28T03:04:18.523Z,1.2
2019-01-28T03:06:18.965Z,0.7
2019-01-28T03:08:18.607Z,1.9
2019-01-28T03:10:18.739Z,0.8
2019-01-28T03:12:19.426Z,0.9
2019-01-28T03:14:19.060Z,1.1
2019-01-28T03:16:19.120Z,1.5
2019-01-28T03:18:18.877Z,0.6
2019-01-28T03:20:18.541Z,1.1
2019-01-28T03:22:19.214Z,1.4
2019-01-28T03:24:18.880Z,0.8
2019-01-28T03:26:19.142Z,1.1
2019-01-28T03:28:18.786Z,0.8
2019-01-28T03:30:19.454Z,0.5
2019-01-28T03:32:19.108Z,0.9
2019-01-28T03:34:18.791Z,0.9
2019-01-28T03:36:19.228Z,0.9
2019-01-28T03:38:18.884Z,0.9
2019-01-28T03:40:19.032Z,0.9
2019-01-28T03:42:18.690Z,0.7
2019-01-28T03:44:19.327Z,0.5
2019-01-28T03:46:18.724Z,0.7
2019-01-28T03:48:19.353Z,0.7
2019-01-28T03:50:19.033Z,0.4
2019-01-28T03:52:18.712Z,1
2019-01-28T03:54:19.386Z,0.6
2019-01-28T03:56:19.269Z,0.8
2019-01-28T03:58:18.927Z,0.5
2019-01-28T04:00:18.624Z,0.9
2019-01-28T04:02:19.273Z,0.6
2019-01-28T04:04:18.943Z,0.6
2019-01-28T04:06:19.279Z,0.5
2019-01-28T04:08:18.925Z,0.4
2019-01-28T04:10:19.132Z,1.1
2019-01-28T04:12:18.798Z,0.6
2019-01-28T04:14:18.437Z,0.5
2019-01-28T04:16:18.755Z,0.6
2019-01-28T04:18:18.468Z,0.9
2019-01-28T04:20:19.131Z,0.8
2019-01-28T04:22:18.761Z,0.9
2019-01-28T04:24:19.384Z,0.4
2019-01-28T04:26:18.599Z,0.8
2019-01-28T04:28:19.247Z,0.5
2019-01-28T04:30:19.080Z,0.5
2019-01-28T04:32:18.733Z,0.5
2019-01-28T04:34:19.356Z,0.4
2019-01-28T04:36:19.271Z,0.7
2019-01-28T04:38:18.944Z,0.9
2019-01-28T04:40:19.079Z,1
2019-01-28T04:42:18.724Z,0.8
2019-01-28T04:44:19.410Z,0.4
2019-01-28T04:46:18.719Z,0.6
2019-01-28T04:48:19.359Z,0.5
2019-01-28T04:50:19.008Z,0.6
2019-01-28T04:52:18.648Z,0.6
2019-01-28T04:54:19.271Z,0.4
2019-01-28T04:56:18.588Z,0.4
2019-01-28T04:58:19.211Z,0.5
2019-01-28T05:00:18.861Z,0.4
2019-01-28T05:02:18.482Z,0.7
2019-01-28T05:04:19.104Z,1.1
2019-01-28T05:06:19.027Z,0.5
2019-01-28T05:08:18.696Z,0.7
2019-01-28T05:10:18.749Z,0.6
2019-01-28T05:12:19.399Z,0.8
2019-01-28T05:14:19.021Z,0.6
2019-01-28T05:16:18.945Z,0.4
2019-01-28T05:18:18.668Z,0.9
2019-01-28T05:20:19.325Z,0.5
2019-01-28T05:22:18.996Z,0.5
2019-01-28T05:24:18.632Z,0.8
2019-01-28T05:26:19.008Z,0.3
2019-01-28T05:28:18.636Z,0.7
2019-01-28T05:30:19.301Z,0.9
2019-01-28T05:32:18.934Z,0.4
2019-01-28T05:34:18.564Z,0.5
2019-01-28T05:36:18.878Z,0.4
2019-01-28T05:38:18.515Z,0.6
2019-01-28T05:40:18.667Z,0.7
2019-01-28T05:42:19.287Z,0.8
2019-01-28T05:44:18.997Z,0.4
2019-01-28T05:46:19.296Z,0.8
2019-01-28T05:48:18.908Z,0.6
2019-01-28T05:50:18.576Z,0.6
2019-01-28T05:52:19.197Z,0.7
2019-01-28T05:54:18.847Z,0.9
2019-01-28T05:56:18.733Z,0.6
2019-01-28T05:58:19.353Z,0.7
2019-01-28T06:00:19.143Z,0.9
2019-01-28T06:02:18.825Z,0.4
2019-01-28T06:04:18.472Z,0.7
2019-01-28T06:06:19.296Z,0.5
2019-01-28T06:08:18.925Z,0.7
2019-01-28T06:10:19.045Z,0.8
2019-01-28T06:12:18.665Z,0.4
2019-01-28T06:14:19.310Z,1
2019-01-28T06:16:18.714Z,0.7
2019-01-28T06:18:18.478Z,0.9
2019-01-28T06:20:19.213Z,0.7
2019-01-28T06:22:18.860Z,0.5
2019-01-28T06:24:18.474Z,1.2
2019-01-28T06:26:19.382Z,1.2
2019-01-28T06:28:19.065Z,1
2019-01-28T06:30:18.691Z,0.8
2019-01-28T06:32:19.284Z,1.3
2019-01-28T06:34:18.931Z,0.7
2019-01-28T06:36:19.297Z,1.1
2019-01-28T06:38:18.933Z,1.6
2019-01-28T06:40:19.130Z,1
2019-01-28T06:42:18.745Z,1.4
2019-01-28T06:44:19.388Z,0.9
2019-01-28T06:46:18.805Z,0.8
2019-01-28T06:48:18.441Z,1.6
2019-01-28T06:50:19.089Z,1.7
2019-01-28T06:52:18.751Z,1.1
2019-01-28T06:54:19.390Z,1.3
2019-01-28T06:56:19.234Z,0.9
2019-01-28T06:58:18.903Z,1.5
2019-01-28T07:00:18.554Z,1.4
2019-01-28T07:02:19.177Z,1.6
2019-01-28T07:04:18.810Z,1.7
2019-01-28T07:06:18.606Z,2.1
2019-01-28T07:08:19.244Z,1.5
2019-01-28T07:10:19.380Z,1.5
2019-01-28T07:12:19.022Z,2.1
2019-01-28T07:14:18.643Z,1.6
2019-01-28T07:16:18.771Z,1.4
2019-01-28T07:18:18.477Z,2.1
2019-01-28T07:20:19.151Z,1.9
2019-01-28T07:22:18.815Z,2
2019-01-28T07:24:18.458Z,1.1
2019-01-28T07:26:18.716Z,2
2019-01-28T07:28:19.325Z,2.2
2019-01-28T07:30:18.949Z,2
2019-01-28T07:32:18.597Z,1.3
2019-01-28T07:34:19.244Z,2.7
2019-01-28T07:36:19.420Z,2.3
2019-01-28T07:38:19.086Z,2.7
2019-01-28T07:40:19.235Z,1.5
2019-01-28T07:42:18.885Z,2.3
2019-01-28T07:44:18.517Z,2
2019-01-28T07:46:18.429Z,2.4
2019-01-28T07:48:19.044Z,1.9
2019-01-28T07:50:18.689Z,2
2019-01-28T07:52:19.338Z,1.9
2019-01-28T07:54:18.999Z,2.4
2019-01-28T07:56:18.780Z,2.8
2019-01-28T07:58:19.414Z,2.4
2019-01-28T08:00:19.454Z,2.5
2019-01-28T08:02:19.245Z,2
2019-01-28T08:04:18.876Z,2.6
2019-01-28T08:06:19.151Z,2.4
2019-01-28T08:08:18.796Z,2.2
2019-01-28T08:10:18.876Z,2.8
2019-01-28T08:12:18.520Z,2.4
2019-01-28T08:14:19.146Z,3.2
2019-01-28T08:16:18.634Z,3.1
2019-01-28T08:18:19.334Z,2.2
2019-01-28T08:20:18.956Z,1.8
2019-01-28T08:22:18.586Z,2.4
2019-01-28T08:24:19.254Z,2.9
2019-01-28T08:26:19.090Z,2.5
2019-01-28T08:28:18.750Z,2.7
2019-01-28T08:30:19.404Z,3
2019-01-28T08:32:19.040Z,2.4
2019-01-28T08:34:18.687Z,3.1
2019-01-28T08:36:19.171Z,2.5
2019-01-28T08:38:18.828Z,2.4
2019-01-28T08:40:18.939Z,2.5
2019-01-28T08:42:18.576Z,3.4
2019-01-28T08:44:19.232Z,3.4
2019-01-28T08:46:18.505Z,3.1
2019-01-28T08:48:19.143Z,3.3
2019-01-28T08:50:18.901Z,2.7
2019-01-28T08:52:18.555Z,3.2
2019-01-28T08:54:19.192Z,2.6
2019-01-28T08:56:19.019Z,3.4
2019-01-28T08:58:18.684Z,3.3
2019-01-28T09:00:19.347Z,3
2019-01-28T09:02:18.962Z,3.2
2019-01-28T09:04:18.621Z,3.4
2019-01-28T09:06:18.491Z,3.1
2019-01-28T09:08:19.105Z,3.1
2019-01-28T09:10:19.261Z,2.2
2019-01-28T09:12:18.883Z,2
2019-01-28T09:14:18.562Z,2.8
2019-01-28T09:16:19.104Z,3.2
2019-01-28T09:18:25.978Z,2.1
2019-01-28T09:20:19.261Z,2.4
2019-01-28T09:22:18.913Z,2
2019-01-28T09:24:18.579Z,1.8
2019-01-28T09:26:19.136Z,2.6
2019-01-28T09:28:18.763Z,3
2019-01-28T09:30:19.398Z,2.3
2019-01-28T09:32:19.056Z,2.3
2019-01-28T09:34:18.696Z,1.9
2019-01-28T09:36:18.581Z,1.9
2019-01-28T09:38:19.242Z,2.1
2019-01-28T09:40:19.336Z,2.6
2019-01-28T09:42:18.967Z,2.2
2019-01-28T09:44:18.598Z,2.1
2019-01-28T09:46:19.030Z,2.5
2019-01-28T09:48:18.674Z,1.7
2019-01-28T09:50:19.293Z,2.2
2019-01-28T09:52:18.917Z,1.8
2019-01-28T09:54:18.558Z,2.5
2019-01-28T09:56:19.391Z,1.5
2019-01-28T09:58:19.018Z,1.7
2019-01-28T10:00:18.646Z,1.8
2019-01-28T10:02:23.495Z,1.7
2019-01-28T10:04:19.324Z,1.8
2019-01-28T10:06:19.290Z,1.8
2019-01-28T10:08:18.936Z,1.4
2019-01-28T10:10:19.062Z,2.1
2019-01-28T10:12:18.714Z,1.7
2019-01-28T10:14:19.349Z,1.5
2019-01-28T10:16:18.755Z,1.9
2019-01-28T10:18:18.433Z,1.3
2019-01-28T10:20:19.088Z,1.4
2019-01-28T10:22:18.737Z,1.1
2019-01-28T10:24:19.397Z,1.6
2019-01-28T10:26:19.324Z,1.4
2019-01-28T10:28:18.955Z,1.6
2019-01-28T10:30:18.624Z,1.2
2019-01-28T10:32:19.284Z,1.7
2019-01-28T10:34:18.931Z,1.2
2019-01-28T10:36:22.584Z,1.2
2019-01-28T10:38:19.378Z,1.1
2019-01-28T10:40:18.484Z,1.6
2019-01-28T10:42:19.156Z,1.4
2019-01-28T10:44:18.801Z,1.3
2019-01-28T10:46:19.076Z,1.1
2019-01-28T10:48:18.780Z,1.6
2019-01-28T10:50:19.434Z,1.4
2019-01-28T10:52:19.069Z,1
2019-01-28T10:54:18.666Z,1.3
2019-01-28T10:56:18.480Z,1.2
2019-01-28T10:58:19.096Z,1
2019-01-28T11:00:18.768Z,0.6
2019-01-28T11:02:19.408Z,0.9
2019-01-28T11:04:19.092Z,1
2019-01-28T11:06:18.667Z,1.1
2019-01-28T11:08:19.277Z,0.8
2019-01-28T11:10:19.458Z,1
2019-01-28T11:12:19.198Z,1
2019-01-28T11:14:19.039Z,1.1
2019-01-28T11:16:18.532Z,0.7
2019-01-28T11:18:19.371Z,0.9
2019-01-28T11:20:19.257Z,0.7
2019-01-28T11:22:19.060Z,0.7
2019-01-28T11:24:18.874Z,0.5
2019-01-28T11:26:18.917Z,0.7
2019-01-28T11:28:18.641Z,0.6
2019-01-28T11:30:19.384Z,1
2019-01-28T11:32:19.131Z,0.8
2019-01-28T11:34:18.898Z,0.6
2019-01-28T11:36:18.468Z,0.3
2019-01-28T11:38:19.313Z,0.6
2019-01-28T11:40:18.624Z,0.9
2019-01-28T11:42:19.365Z,0.9
2019-01-28T11:44:19.129Z,1
2019-01-28T11:46:18.896Z,0.4
2019-01-28T11:48:18.588Z,0.4
2019-01-28T11:50:19.334Z,0.6
2019-01-28T11:52:18.991Z,0.4
2019-01-28T11:54:18.623Z,0.8
2019-01-28T11:56:18.876Z,0.6
2019-01-28T11:58:18.521Z,0.4
2019-01-28T12:00:19.154Z,0.6
2019-01-28T12:02:18.797Z,0.7
2019-01-28T12:04:19.432Z,0.5
2019-01-28T12:06:19.247Z,0.5
2019-01-28T12:08:18.902Z,0.5
2019-01-28T12:10:19.056Z,1.2
2019-01-28T12:12:18.707Z,0.9
2019-01-28T12:14:19.349Z,0.8
2019-01-28T12:16:19.192Z,0.7
2019-01-28T12:18:18.893Z,0.8
2019-01-28T12:20:18.542Z,0.5
2019-01-28T12:22:19.196Z,0.5
2019-01-28T12:24:18.877Z,0.6
2019-01-28T12:26:19.173Z,0.5
2019-01-28T12:28:18.812Z,0.8
2019-01-28T12:30:18.425Z,0.3
2019-01-28T12:32:19.079Z,0.7
2019-01-28T12:34:18.714Z,0.6
2019-01-28T12:36:19.359Z,0.9
2019-01-28T12:38:19.023Z,0.5
2019-01-28T12:40:19.171Z,0.4
2019-01-28T12:42:18.863Z,0.5
2019-01-28T12:44:18.523Z,0.4
2019-01-28T12:46:19.394Z,0.6
2019-01-28T12:48:19.065Z,0.4
2019-01-28T12:50:18.734Z,0.5
2019-01-28T12:52:19.413Z,0.2
2019-01-28T12:54:19.092Z,0.5
2019-01-28T12:56:18.964Z,0.5
2019-01-28T12:58:18.602Z,0.7
2019-01-28T13:00:19.271Z,0.4
2019-01-28T13:02:18.923Z,0.4
2019-01-28T13:04:18.589Z,0.6
2019-01-28T13:06:18.918Z,0.2
2019-01-28T13:08:18.540Z,0.5
2019-01-28T13:10:18.673Z,0.7
2019-01-28T13:12:19.345Z,0.4
2019-01-28T13:14:18.985Z,0.5
2019-01-28T13:16:18.818Z,0.6
2019-01-28T13:18:18.552Z,0.7
2019-01-28T13:20:19.441Z,0.5
2019-01-28T13:22:19.100Z,0.4
2019-01-28T13:24:18.736Z,0.8
2019-01-28T13:26:18.520Z,0.4
2019-01-28T13:28:19.162Z,0.5
2019-01-28T13:30:18.822Z,0.2
2019-01-28T13:32:18.449Z,0.4
2019-01-28T13:34:19.106Z,0.6
2019-01-28T13:36:18.894Z,0.5
2019-01-28T13:38:18.562Z,0.4
2019-01-28T13:40:18.752Z,0.6
2019-01-28T13:42:19.403Z,0.4
2019-01-28T13:44:19.075Z,0.5
2019-01-28T13:46:19.201Z,0.5
2019-01-28T13:48:18.909Z,0.3
2019-01-28T13:50:18.582Z,0.4
2019-01-28T13:52:18.988Z,1.8
2019-01-28T13:54:18.641Z,0.3
2019-01-28T13:56:19.406Z,0.5
2019-01-28T13:58:19.087Z,0.7
2019-01-28T14:00:18.765Z,0.6
2019-01-28T14:02:19.407Z,0.5
2019-01-28T14:04:19.075Z,0.4
2019-01-28T14:06:18.968Z,0.4
2019-01-28T14:08:18.625Z,0.5
2019-01-28T14:10:18.798Z,0.4
2019-01-28T14:12:19.445Z,0.5
2019-01-28T14:14:19.144Z,0.3
2019-01-28T14:16:18.586Z,0.3
2019-01-28T14:18:19.304Z,0.4
2019-01-28T14:20:19.009Z,0.4
2019-01-28T14:22:18.632Z,0.3
2019-01-28T14:24:19.285Z,0.5
2019-01-28T14:26:18.611Z,0.4
2019-01-28T14:28:19.255Z,0.6
2019-01-28T14:30:18.891Z,0.5
2019-01-28T14:32:18.533Z,0.4
2019-01-28T14:34:19.166Z,0.7
2019-01-28T14:36:18.950Z,1.4
2019-01-28T14:38:18.593Z,0.5
2019-01-28T14:40:18.896Z,0.5
2019-01-28T14:42:18.509Z,0.5
2019-01-28T14:44:19.139Z,0.4
2019-01-28T14:46:18.528Z,0.4
2019-01-28T14:48:19.178Z,0.4
2019-01-28T14:50:18.816Z,0.3
2019-01-28T14:52:18.454Z,0.4
2019-01-28T14:54:19.073Z,0.3
2019-01-28T14:56:18.565Z,0.3
2019-01-28T14:58:19.193Z,0.3
2019-01-28T15:00:18.954Z,0.3
2019-01-28T15:02:20.260Z,0.5
2019-01-28T15:04:19.001Z,0.2
2019-01-28T15:06:19.270Z,0.2
2019-01-28T15:08:18.899Z,0.6
2019-01-28T15:10:19.071Z,0.3
2019-01-28T15:12:18.704Z,0.2
2019-01-28T15:14:19.359Z,0.3
2019-01-28T15:16:19.188Z,0.2
2019-01-28T15:18:18.907Z,0.5
2019-01-28T15:20:18.551Z,0.3
2019-01-28T15:22:19.163Z,0.2
2019-01-28T15:24:18.819Z,0.7
2019-01-28T15:26:19.124Z,0.4
2019-01-28T15:28:18.896Z,0.1
2019-01-28T15:30:18.556Z,0.2
2019-01-28T15:32:19.196Z,0.3
2019-01-28T15:34:18.864Z,0.3
2019-01-28T15:36:19.357Z,0.7
2019-01-28T15:38:19.029Z,0.3
2019-01-28T15:40:19.251Z,0.2
2019-01-28T15:42:18.877Z,0.1
2019-01-28T15:44:18.518Z,1.6
2019-01-28T15:46:19.223Z,0.7
2019-01-28T15:48:18.869Z,0.3
2019-01-28T15:50:18.567Z,0.4
2019-01-28T15:52:19.241Z,0.6
2019-01-28T15:54:18.870Z,0.4
2019-01-28T15:56:18.678Z,0.6
2019-01-28T15:58:19.309Z,0.2
2019-01-28T16:00:18.989Z,0.3
2019-01-28T16:02:18.637Z,0.2
2019-01-28T16:04:19.286Z,0.6
2019-01-28T16:06:18.619Z,0.3
2019-01-28T16:08:19.263Z,0.4
2019-01-28T16:10:19.363Z,0.6
2019-01-28T16:12:18.978Z,0.6
2019-01-28T16:14:18.635Z,0.6
2019-01-28T16:16:18.596Z,0.8
2019-01-28T16:18:19.316Z,0.6
2019-01-28T16:20:18.997Z,0.6
2019-01-28T16:22:19.393Z,0.4
2019-01-28T16:24:19.069Z,0.5
2019-01-28T16:26:19.076Z,0.7
2019-01-28T16:28:18.711Z,0.7
2019-01-28T16:30:19.359Z,0.9
2019-01-28T16:32:18.993Z,0.8
2019-01-28T16:34:18.639Z,0.8
2019-01-28T16:36:18.885Z,0.6
2019-01-28T16:38:18.539Z,0.8
2019-01-28T16:40:18.642Z,0.5
2019-01-28T16:42:19.292Z,0.6
2019-01-28T16:44:18.936Z,0.4
2019-01-28T16:46:19.203Z,0.4
2019-01-28T16:48:18.843Z,0.4
2019-01-28T16:50:26.501Z,0.6
2019-01-28T16:52:18.823Z,0.5
2019-01-28T16:54:18.501Z,1.1
2019-01-28T16:56:19.328Z,0.7
2019-01-28T16:58:18.978Z,0.5
2019-01-28T17:00:18.616Z,0.5
2019-01-28T17:02:19.281Z,0.8
2019-01-28T17:04:18.955Z,0.7
2019-01-28T17:06:18.875Z,0.4
2019-01-28T17:08:18.517Z,0.5
2019-01-28T17:10:18.637Z,0.5
2019-01-28T17:12:19.263Z,0.8
2019-01-28T17:14:18.895Z,0.6
2019-01-28T17:16:19.010Z,0.8
2019-01-28T17:18:18.682Z,0.7
2019-01-28T17:20:19.324Z,1
2019-01-28T17:22:18.985Z,0.9
2019-01-28T17:24:18.617Z,0.9
2019-01-28T17:26:19.259Z,0.7
2019-01-28T17:28:18.908Z,0.5
2019-01-28T17:30:18.527Z,0.7
2019-01-28T17:32:19.133Z,0.5
2019-01-28T17:34:18.795Z,0.5
2019-01-28T17:36:18.551Z,0.6
2019-01-28T17:38:19.197Z,0.8
2019-01-28T17:40:19.331Z,0.6
2019-01-28T17:42:18.969Z,0.7
2019-01-28T17:44:18.591Z,1.2
2019-01-28T17:46:19.363Z,0.7
2019-01-28T17:48:18.974Z,1.1
2019-01-28T17:50:24.434Z,0.7
2019-01-28T17:52:18.525Z,0.8
2019-01-28T17:54:19.156Z,0.6
2019-01-28T17:56:19.400Z,0.8
2019-01-28T17:58:19.062Z,0.8
2019-01-28T18:00:18.701Z,0.8
2019-01-28T18:02:19.323Z,0.4
2019-01-28T18:04:18.943Z,0.6
2019-01-28T18:06:19.174Z,0.6
2019-01-28T18:08:18.820Z,0.7
2019-01-28T18:10:18.922Z,0.5
2019-01-28T18:12:18.569Z,0.6
2019-01-28T18:14:19.218Z,0.6
2019-01-28T18:16:18.443Z,0.5
2019-01-28T18:18:19.168Z,0.7
2019-01-28T18:20:18.783Z,1
2019-01-28T18:22:19.420Z,0.6
2019-01-28T18:24:19.057Z,0.9
2019-01-28T18:26:18.893Z,0.7
2019-01-28T18:28:18.562Z,1
2019-01-28T18:30:19.202Z,1.2
2019-01-28T18:32:18.841Z,0.9
2019-01-28T18:34:18.494Z,1.1
2019-01-28T18:36:18.774Z,0.9
2019-01-28T18:38:19.400Z,1.2
2019-01-28T18:40:18.531Z,0.7
2019-01-28T18:42:19.173Z,1
2019-01-28T18:44:18.813Z,1.1
2019-01-28T18:46:18.563Z,1
2019-01-28T18:48:19.198Z,1
2019-01-28T18:50:18.834Z,1
2019-01-28T18:52:18.455Z,1
2019-01-28T18:54:19.098Z,0.8
2019-01-28T18:56:19.331Z,1.1
2019-01-28T18:58:18.955Z,0.8
2019-01-28T19:00:18.690Z,0.8
2019-01-28T19:02:19.321Z,1.1
2019-01-28T19:04:18.957Z,1.3
2019-01-28T19:06:19.222Z,1.1
2019-01-28T19:08:18.889Z,1.8
2019-01-28T19:10:18.969Z,1.7
2019-01-28T19:12:18.663Z,1.3
2019-01-28T19:14:19.298Z,1.5
2019-01-28T19:16:18.567Z,0.9
2019-01-28T19:18:19.313Z,1.6
2019-01-28T19:20:18.966Z,1.1
2019-01-28T19:22:18.589Z,2
2019-01-28T19:24:19.215Z,1.6
2019-01-28T19:26:19.050Z,1.2
2019-01-28T19:28:18.683Z,1.7
2019-01-28T19:30:19.299Z,1.5
2019-01-28T19:32:18.990Z,1.6
2019-01-28T19:34:18.616Z,1.8
2019-01-28T19:36:18.818Z,1.8
2019-01-28T19:38:18.430Z,1.6
2019-01-28T19:40:18.505Z,2.3
2019-01-28T19:42:19.119Z,1.6
2019-01-28T19:44:18.731Z,2.1
2019-01-28T19:46:18.495Z,2.2
2019-01-28T19:48:19.110Z,2.5
2019-01-28T19:50:18.758Z,2
2019-01-28T19:52:19.369Z,2.1
2019-01-28T19:54:19.023Z,2.2
2019-01-28T19:56:19.309Z,2.2
2019-01-28T19:58:18.952Z,2.6
2019-01-28T20:00:18.585Z,2.6
2019-01-28T20:02:19.225Z,3.1
2019-01-28T20:04:18.876Z,2.8
2019-01-28T20:06:19.151Z,2.4
2019-01-28T20:08:18.761Z,3
2019-01-28T20:10:18.844Z,2.2
2019-01-28T20:12:18.503Z,2.9
2019-01-28T20:14:19.184Z,2.5
2019-01-28T20:16:18.482Z,2.7
2019-01-28T20:18:19.176Z,2.9
2019-01-28T20:20:18.810Z,2.3
2019-01-28T20:22:18.440Z,2.5
2019-01-28T20:24:19.114Z,2.5
2019-01-28T20:26:18.963Z,2.6
2019-01-28T20:28:18.589Z,2.2
2019-01-28T20:30:19.254Z,2.7
2019-01-28T20:32:18.901Z,2.9
2019-01-28T20:34:18.559Z,2.7
2019-01-28T20:36:19.333Z,2.7
2019-01-28T20:38:18.965Z,2.8
2019-01-28T20:40:19.076Z,2.6
2019-01-28T20:42:18.715Z,2.8
2019-01-28T20:44:19.340Z,2.9
2019-01-28T20:46:18.630Z,2.5
2019-01-28T20:48:19.292Z,2.9
2019-01-28T20:50:18.988Z,2.8
2019-01-28T20:52:18.648Z,2.7
2019-01-28T20:54:19.325Z,2.5
2019-01-28T20:56:19.132Z,2.7
2019-01-28T20:58:18.781Z,3.3
2019-01-28T21:00:18.529Z,2.3
2019-01-28T21:02:19.179Z,2.6
2019-01-28T21:04:18.872Z,3
2019-01-28T21:06:19.321Z,2.1
2019-01-28T21:08:18.985Z,2.8
2019-01-28T21:10:19.318Z,3.1
2019-01-28T21:12:19.011Z,3.2
2019-01-28T21:14:18.754Z,2.6
2019-01-28T21:16:19.787Z,2.2
2019-01-28T21:18:18.665Z,2.8
2019-01-28T21:20:19.505Z,3.5
2019-01-28T21:22:19.140Z,3.7
2019-01-28T21:24:18.760Z,3.3
2019-01-28T21:26:19.082Z,3.1
2019-01-28T21:28:18.732Z,2.8
2019-01-28T21:30:19.482Z,2.9
2019-01-28T21:32:19.131Z,2.6
2019-01-28T21:34:18.790Z,3.3
2019-01-28T21:36:19.088Z,3.4
2019-01-28T21:38:18.715Z,2.4
2019-01-28T21:40:18.810Z,2.5
2019-01-28T21:42:18.454Z,3.4
2019-01-28T21:44:19.107Z,2.2
2019-01-28T21:46:19.683Z,2.8
2019-01-28T21:48:18.951Z,2.6
2019-01-28T21:50:18.607Z,3.3
2019-01-28T21:52:19.234Z,3.1
2019-01-28T21:54:18.867Z,3.2
2019-01-28T21:56:19.086Z,3.6
2019-01-28T21:58:18.705Z,3.4
2019-01-28T22:00:19.385Z,3
2019-01-28T22:02:19.012Z,2.8
2019-01-28T22:04:18.670Z,2.6
2019-01-28T22:06:18.446Z,3
2019-01-28T22:08:19.066Z,2.3
2019-01-28T22:10:19.211Z,2.6
2019-01-28T22:12:18.810Z,2.6
2019-01-28T22:14:18.405Z,3.2
2019-01-28T22:16:18.463Z,3.7
2019-01-28T22:18:19.230Z,2.8
2019-01-28T22:20:19.007Z,2.5
2019-01-28T22:22:18.660Z,2.4
2019-01-28T22:24:19.645Z,2.8
2019-01-28T22:26:19.176Z,2.9
2019-01-28T22:28:18.798Z,3.6
2019-01-28T22:30:19.431Z,2.9
2019-01-28T22:32:19.115Z,3
2019-01-28T22:34:18.760Z,2.7
2019-01-28T22:36:18.972Z,3.2
2019-01-28T22:38:18.610Z,3.8
2019-01-28T22:40:18.758Z,3.1
2019-01-28T22:42:21.285Z,2.7
2019-01-28T22:44:19.400Z,3.5
2019-01-28T22:46:18.746Z,2.3
2019-01-28T22:48:19.343Z,2.9
2019-01-28T22:50:18.966Z,2.3
2019-01-28T22:52:18.578Z,3.2
2019-01-28T22:54:19.192Z,2.4
2019-01-28T22:56:18.460Z,2.6
2019-01-28T22:58:19.064Z,3
2019-01-28T23:00:18.697Z,2.6
2019-01-28T23:02:19.306Z,2.5
2019-01-28T23:04:18.913Z,2.2
2019-01-28T23:06:18.732Z,2.9
2019-01-28T23:08:19.348Z,2.5
2019-01-28T23:10:18.716Z,2.8
2019-01-28T23:12:19.324Z,2.9
2019-01-28T23:14:18.953Z,2.9
2019-01-28T23:16:19.199Z,3.3
2019-01-28T23:18:18.917Z,2.8
2019-01-28T23:20:18.550Z,3.7
2019-01-28T23:22:19.184Z,3
2019-01-28T23:24:18.816Z,2.9
2019-01-28T23:26:19.059Z,3
2019-01-28T23:28:18.677Z,3.4
2019-01-28T23:30:19.315Z,3.3
2019-01-28T23:32:18.914Z,3
2019-01-28T23:34:18.554Z,3.7
2019-01-28T23:36:18.837Z,3.4
2019-01-28T23:38:18.455Z,3.6
2019-01-28T23:40:18.585Z,3
2019-01-28T23:42:19.243Z,3.3
2019-01-28T23:44:18.859Z,2.7
2019-01-28T23:46:18.711Z,2.2
2019-01-28T23:48:19.350Z,2.1
2019-01-28T23:50:19.045Z,2.7
2019-01-28T23:52:24.657Z,3.2
2019-01-28T23:54:18.852Z,2.4
2019-01-28T23:56:19.292Z,2.5
2019-01-28T23:58:18.962Z,3.1
